Time;durP1;ratioP1;P1;durP2;ratioP2;P2;SDS_P1;SDS_P2;PMS_P1;PMS_P2;Temp;Humidity;BMP_temperature;BMP_pressure;BME280_temperature;BME280_humidity;BME280_pressure;Samples;Min_cycle;Max_cycle;Signal;HPM_P1;HPM_P2
2022/12/19 00:01:17;;;;;;;81.83;29.97;;;-5.80;1.00;;;;;;10387419;28;20220;-79
2022/12/19 00:06:39;;;;;;;81.67;28.67;;;-5.90;99.90;;;;;;10409619;28;20190;-78
2022/12/19 00:12:00;;;;;;;78.13;28.43;;;-5.90;1.00;;;;;;10395100;28;20219;-79
2022/12/19 00:17:22;;;;;;;77.27;28.73;;;-5.90;1.00;;;;;;10395098;28;20232;-78
2022/12/19 00:22:43;;;;;;;75.93;30.30;;;-5.90;99.90;;;;;;10394774;28;20223;-78
2022/12/19 00:28:04;;;;;;;81.03;29.73;;;-5.90;1.00;;;;;;10381071;28;20505;-78
2022/12/19 00:33:25;;;;;;;78.10;27.73;;;-6.00;1.00;;;;;;10380739;28;20247;-79
2022/12/19 00:38:47;;;;;;;93.90;33.07;;;-6.10;1.00;;;;;;10380236;28;20231;-78
2022/12/19 00:44:17;;;;;;;72.40;28.97;;;-6.10;1.00;;;;;;10394395;28;20394;-79
2022/12/19 00:49:38;;;;;;;77.87;30.93;;;-6.20;1.00;;;;;;10403554;28;20189;-80
2022/12/19 00:54:59;;;;;;;86.27;30.77;;;-6.10;1.00;;;;;;10388864;28;20196;-79
2022/12/19 01:00:20;;;;;;;77.63;31.80;;;-6.20;1.00;;;;;;10387702;28;20225;-78
2022/12/19 01:05:41;;;;;;;72.13;32.70;;;-6.20;1.00;;;;;;10402154;28;20189;-78
2022/12/19 01:11:04;;;;;;;82.50;29.77;;;-6.10;1.00;;;;;;10403043;28;20204;-79
2022/12/19 01:16:25;;;;;;;67.50;29.80;;;-6.20;99.90;;;;;;10387726;28;20196;-77
2022/12/19 01:21:46;;;;;;;74.17;29.37;;;-6.20;99.90;;;;;;10387518;28;20244;-79
2022/12/19 01:27:08;;;;;;;81.13;31.17;;;-6.40;1.00;;;;;;10401055;28;20203;-78
2022/12/19 01:32:29;;;;;;;92.10;34.07;;;-6.40;1.00;;;;;;10387047;28;20247;-78
2022/12/19 01:37:52;;;;;;;90.90;34.40;;;-6.50;1.00;;;;;;10400180;28;20434;-79
2022/12/19 01:43:14;;;;;;;71.43;28.83;;;-6.50;1.00;;;;;;10401115;28;20192;-79
2022/12/19 01:48:42;;;;;;;77.13;28.27;;;-6.50;1.00;;;;;;10400643;28;20189;-78
2022/12/19 01:54:08;;;;;;;75.57;29.07;;;-6.60;1.00;;;;;;10360840;28;20270;-79
2022/12/19 01:59:55;;;;;;;81.07;29.33;;;-6.50;1.00;;;;;;10382343;28;20417;-78
2022/12/19 02:05:16;;;;;;;72.27;28.90;;;-6.60;1.00;;;;;;10348072;28;20198;-79
2022/12/19 02:10:37;;;;;;;78.53;28.47;;;-6.50;1.00;;;;;;10345545;28;20225;-78
2022/12/19 02:16:54;;;;;;;73.27;28.23;;;-6.60;99.90;;;;;;10358794;28;20201;-78
2022/12/19 02:23:10;;;;;;;79.53;28.63;;;-6.60;99.90;;;;;;10380143;28;20240;-79
2022/12/19 02:28:55;;;;;;;79.00;28.53;;;-6.60;99.90;;;;;;10262083;28;20395;-79
2022/12/19 02:34:36;;;;;;;73.00;27.43;;;-6.70;1.00;;;;;;10245890;28;20203;-78
2022/12/19 02:40:41;;;;;;;72.50;28.83;;;-6.90;1.00;;;;;;10259122;28;20238;-77
2022/12/19 02:46:08;;;;;;;72.27;27.13;;;-7.00;1.00;;;;;;10209104;29;20212;-79
2022/12/19 02:51:31;;;;;;;73.23;27.43;;;-6.90;1.00;;;;;;10179658;29;20470;-79
2022/12/19 02:57:27;;;;;;;84.67;30.40;;;-6.90;1.00;;;;;;10164019;29;20209;-79
2022/12/19 03:03:37;;;;;;;77.70;29.77;;;-6.80;99.90;;;;;;10151185;29;20425;-78
2022/12/19 03:09:12;;;;;;;79.47;28.43;;;-6.80;99.90;;;;;;10142011;29;20228;-79
2022/12/19 03:14:36;;;;;;;80.53;29.07;;;-6.90;99.90;;;;;;10187258;28;20238;-81
2022/12/19 03:19:57;;;;;;;89.77;32.53;;;-7.00;99.90;;;;;;10300036;28;20324;-78
2022/12/19 03:25:21;;;;;;;80.73;30.80;;;-7.10;1.00;;;;;;10299987;28;20297;-78
2022/12/19 03:30:44;;;;;;;75.60;27.87;;;-7.00;99.90;;;;;;10269970;28;20539;-79
2022/12/19 03:36:09;;;;;;;84.10;30.60;;;-7.00;99.90;;;;;;10325286;28;20219;-78
2022/12/19 03:47:41;;;;;;;80.20;28.50;;;-7.00;99.90;;;;;;10356430;28;20186;-78
2022/12/19 03:53:15;;;;;;;83.77;30.73;;;-7.00;99.90;;;;;;10376065;28;20417;-79
2022/12/19 03:59:12;;;;;;;76.10;28.67;;;-7.10;99.90;;;;;;10397584;28;20275;-81
2022/12/19 04:04:37;;;;;;;80.67;29.47;;;-7.00;99.90;;;;;;10381298;28;20201;-78
2022/12/19 04:10:04;;;;;;;81.17;29.57;;;-7.10;99.90;;;;;;10409302;28;20193;-78
2022/12/19 04:16:10;;;;;;;85.80;33.50;;;-7.20;99.90;;;;;;10409447;28;20243;-78
2022/12/19 04:21:38;;;;;;;75.77;36.40;;;-7.10;99.90;;;;;;10380748;28;20264;-79
2022/12/19 04:27:02;;;;;;;70.00;29.70;;;-7.10;99.90;;;;;;10381748;28;20200;-80
2022/12/19 04:32:25;;;;;;;78.33;30.53;;;-7.20;99.90;;;;;;10394801;28;20539;-80
2022/12/19 04:37:48;;;;;;;113.43;53.83;;;-7.10;99.90;;;;;;10380758;28;20229;-80
2022/12/19 04:43:09;;;;;;;126.63;47.70;;;-7.10;99.90;;;;;;10380676;28;20250;-80
2022/12/19 04:48:33;;;;;;;89.70;35.67;;;-7.20;99.90;;;;;;10408215;28;20189;-81
2022/12/19 04:53:54;;;;;;;82.97;34.23;;;-7.10;44.40;;;;;;10380211;28;20280;-80
2022/12/19 04:59:15;;;;;;;77.73;30.63;;;-7.10;91.70;;;;;;10394233;28;20237;-80
2022/12/19 05:04:36;;;;;;;65.40;27.67;;;-7.10;96.10;;;;;;10390264;28;20522;-78
2022/12/19 05:09:58;;;;;;;63.20;25.10;;;-7.20;99.90;;;;;;10379821;28;20220;-79
2022/12/19 05:15:19;;;;;;;60.63;25.03;;;-7.10;99.90;;;;;;10394130;28;20201;-78
2022/12/19 05:20:40;;;;;;;68.03;24.37;;;-7.10;99.90;;;;;;10393869;28;20441;-79
2022/12/19 05:26:03;;;;;;;64.80;25.57;;;-7.10;50.20;;;;;;10380057;28;20480;-78
2022/12/19 05:31:24;;;;;;;61.93;26.07;;;-7.00;1.00;;;;;;10380725;28;20260;-78
2022/12/19 05:36:45;;;;;;;88.63;33.83;;;-7.00;99.90;;;;;;10401718;28;20213;-78
2022/12/19 05:42:06;;;;;;;132.27;44.97;;;-7.00;99.90;;;;;;10400695;28;20223;-78
2022/12/19 05:47:31;;;;;;;107.23;40.27;;;-7.00;99.90;;;;;;10359846;28;20209;-79
2022/12/19 05:52:52;;;;;;;96.57;37.30;;;-7.10;99.90;;;;;;10359355;28;20193;-78
2022/12/19 05:58:13;;;;;;;80.00;31.43;;;-7.10;99.90;;;;;;10368946;28;20244;-79
2022/12/19 06:03:34;;;;;;;67.53;25.93;;;-7.20;99.90;;;;;;10399272;28;20228;-79
2022/12/19 06:08:57;;;;;;;66.20;28.50;;;-7.10;99.90;;;;;;10399910;28;20510;-79
2022/12/19 06:14:19;;;;;;;76.30;32.20;;;-7.10;99.90;;;;;;10399175;28;20197;-79
2022/12/19 06:19:40;;;;;;;105.60;45.97;;;-7.00;1.00;;;;;;10399336;28;20221;-80
2022/12/19 06:25:02;;;;;;;688.27;273.33;;;-6.90;1.00;;;;;;10399018;28;20204;-79
2022/12/19 06:30:23;;;;;;;526.37;223.97;;;-6.90;99.90;;;;;;10399205;28;20233;-81
2022/12/19 06:35:44;;;;;;;216.60;106.67;;;-6.90;99.90;;;;;;10384163;28;20193;-81
2022/12/19 06:46:45;;;;;;;85.43;42.03;;;-6.80;99.90;;;;;;10383662;28;20193;-80
2022/12/19 06:52:06;;;;;;;83.77;34.77;;;-6.80;99.90;;;;;;10370943;28;20491;-80
2022/12/19 06:57:29;;;;;;;75.33;34.10;;;-6.80;99.90;;;;;;10385006;28;20367;-80
2022/12/19 07:02:50;;;;;;;69.90;28.57;;;-6.80;1.00;;;;;;10383334;28;20205;-79
2022/12/19 07:08:11;;;;;;;89.80;38.40;;;-6.90;99.90;;;;;;10397990;28;20483;-78
2022/12/19 07:13:32;;;;;;;87.57;34.27;;;-6.70;99.90;;;;;;10382927;28;20197;-79
2022/12/19 07:18:54;;;;;;;102.87;37.10;;;-6.80;99.90;;;;;;10396507;28;20252;-80
2022/12/19 07:24:15;;;;;;;105.80;40.23;;;-6.80;99.90;;;;;;10397671;28;20193;-80
2022/12/19 07:29:36;;;;;;;217.67;78.80;;;-6.60;99.90;;;;;;10382117;28;20426;-80
2022/12/19 07:34:57;;;;;;;536.00;252.37;;;-6.50;99.90;;;;;;10382256;28;20189;-79
2022/12/19 07:40:19;;;;;;;108.00;59.27;;;-6.60;99.90;;;;;;10382122;28;20396;-79
2022/12/19 07:45:41;;;;;;;71.23;33.77;;;-6.40;99.90;;;;;;10382297;28;20236;-79
2022/12/19 07:51:04;;;;;;;67.83;30.47;;;-6.40;99.90;;;;;;10381731;28;20297;-78
2022/12/19 07:56:26;;;;;;;61.70;28.53;;;-6.30;99.90;;;;;;10395047;28;20217;-81
2022/12/19 08:01:47;;;;;;;62.47;27.37;;;-6.10;21.30;;;;;;10386237;28;20553;-79
2022/12/19 08:07:09;;;;;;;55.30;25.73;;;-6.00;36.70;;;;;;10363721;28;20217;-78
2022/12/19 08:12:32;;;;;;;71.33;29.20;;;-6.20;1.00;;;;;;10340717;28;20204;-79
2022/12/19 08:17:53;;;;;;;53.07;27.13;;;-6.10;92.40;;;;;;10354465;28;20221;-79
2022/12/19 08:23:15;;;;;;;60.30;26.10;;;-5.80;1.00;;;;;;10354298;28;20193;-79
2022/12/19 08:28:36;;;;;;;62.53;25.03;;;-5.80;1.00;;;;;;10340092;28;20202;-79
2022/12/19 08:33:58;;;;;;;63.27;28.90;;;-5.60;1.00;;;;;;10359668;28;20312;-78
2022/12/19 08:39:19;;;;;;;75.50;32.53;;;-5.50;61.40;;;;;;10363879;28;20263;-78
2022/12/19 08:44:40;;;;;;;87.37;42.87;;;-5.50;1.00;;;;;;10389825;28;20417;-79
2022/12/19 08:50:02;;;;;;;73.10;31.43;;;-5.20;99.90;;;;;;10374054;28;20379;-77
2022/12/19 08:55:24;;;;;;;60.90;26.27;;;-4.90;99.90;;;;;;10373941;28;20551;-79
2022/12/19 09:00:45;;;;;;;59.70;27.87;;;-4.80;99.90;;;;;;10388361;28;20234;-78
2022/12/19 09:06:12;;;;;;;56.77;26.47;;;-5.10;1.00;;;;;;10390442;28;20227;-79
2022/12/19 09:11:37;;;;;;;62.77;27.33;;;-4.90;99.90;;;;;;10382794;28;20535;-78
2022/12/19 09:16:59;;;;;;;69.50;29.63;;;-4.70;99.90;;;;;;10368005;28;20206;-80
2022/12/19 09:22:20;;;;;;;64.60;27.57;;;-4.90;1.00;;;;;;10382561;28;20218;-82
2022/12/19 09:27:41;;;;;;;70.87;28.57;;;-4.80;99.90;;;;;;10343760;28;20202;-79
2022/12/19 09:33:21;;;;;;;65.43;30.70;;;-4.70;99.90;;;;;;10354749;28;20265;-78
2022/12/19 09:38:43;;;;;;;70.63;28.10;;;-4.50;1.00;;;;;;10354955;28;20207;-77
2022/12/19 09:44:26;;;;;;;65.20;28.23;;;-4.40;1.00;;;;;;10355998;28;20203;-88
2022/12/19 09:49:48;;;;;;;73.53;32.77;;;-4.40;99.90;;;;;;10357075;28;20213;-82
2022/12/19 09:55:32;;;;;;;67.97;29.27;;;-4.30;99.90;;;;;;10380093;28;20207;-82
2022/12/19 10:00:56;;;;;;;64.13;29.60;;;-4.10;1.00;;;;;;10408479;28;20258;-81
2022/12/19 10:06:20;;;;;;;64.30;27.07;;;-4.00;1.00;;;;;;10381092;28;20201;-80
2022/12/19 10:11:50;;;;;;;86.87;43.80;;;-4.20;27.60;;;;;;10393917;28;20214;-86
2022/12/19 10:17:42;;;;;;;71.20;30.77;;;-4.10;99.90;;;;;;10379886;28;20522;-79
2022/12/19 10:23:28;;;;;;;66.00;27.70;;;-3.90;93.40;;;;;;10379688;28;20239;-80
2022/12/19 10:29:07;;;;;;;58.87;26.93;;;-3.70;1.00;;;;;;10381743;28;20395;-85
2022/12/19 10:34:55;;;;;;;55.40;24.97;;;-3.70;99.90;;;;;;10378774;28;20210;-77
2022/12/19 10:40:27;;;;;;;51.43;23.47;;;-3.60;1.00;;;;;;10392886;28;20236;-79
2022/12/19 10:45:52;;;;;;;59.73;25.60;;;-3.50;1.00;;;;;;10394611;28;20197;-85
2022/12/19 10:51:26;;;;;;;67.47;31.30;;;-3.50;58.10;;;;;;10379293;28;20205;-80
2022/12/19 10:56:47;;;;;;;73.13;32.03;;;-3.00;99.90;;;;;;10378873;28;20374;-80
2022/12/19 11:02:21;;;;;;;55.83;25.67;;;-3.00;1.00;;;;;;10399963;28;20247;-79
2022/12/19 11:08:18;;;;;;;50.87;24.27;;;-2.90;99.90;;;;;;10378443;28;20434;-84
2022/12/19 11:13:47;;;;;;;81.17;31.80;;;-2.40;1.00;;;;;;10393087;28;20244;-86
2022/12/19 11:19:38;;;;;;;84.43;35.77;;;-1.70;99.90;;;;;;10391573;28;20229;-80
2022/12/19 11:24:59;;;;;;;71.00;29.73;;;-1.60;99.90;;;;;;10390895;28;20510;-79
2022/12/19 11:30:23;;;;;;;77.43;35.70;;;-1.80;99.90;;;;;;10375466;28;20249;-81
2022/12/19 11:36:05;;;;;;;67.37;30.67;;;-1.40;99.90;;;;;;10387450;28;20487;-78
2022/12/19 11:41:40;;;;;;;47.87;22.33;;;-1.30;1.00;;;;;;10389227;28;20249;-79
2022/12/19 11:47:15;;;;;;;52.10;24.50;;;-1.40;17.20;;;;;;10374555;28;20191;-77
2022/12/19 11:52:45;;;;;;;52.97;24.80;;;-1.40;1.00;;;;;;10391367;28;20189;-77
2022/12/19 11:58:28;;;;;;;57.70;25.17;;;-1.20;1.00;;;;;;10376423;28;20204;-91
2022/12/19 12:04:14;;;;;;;71.90;32.73;;;-1.00;99.90;;;;;;10363108;28;20209;-83
2022/12/19 12:09:51;;;;;;;62.70;28.60;;;-0.80;1.00;;;;;;10390316;28;20195;-82
2022/12/19 12:15:24;;;;;;;57.17;27.33;;;-1.10;1.00;;;;;;10375687;28;20520;-78
2022/12/19 12:21:19;;;;;;;59.70;24.80;;;-1.30;1.00;;;;;;10389165;28;20548;-78
2022/12/19 12:26:53;;;;;;;61.60;28.60;;;-1.80;99.90;;;;;;10388965;28;20205;-79
2022/12/19 12:32:59;;;;;;;64.90;32.03;;;-2.00;1.00;;;;;;10388501;28;20225;-79
2022/12/19 12:38:38;;;;;;;56.37;26.03;;;-2.00;99.90;;;;;;10389409;28;20386;-77
2022/12/19 12:44:08;;;;;;;52.83;24.20;;;-2.00;99.90;;;;;;10397645;28;20203;-79
2022/12/19 12:49:40;;;;;;;49.70;25.00;;;-2.00;99.90;;;;;;10384837;28;20280;-80
2022/12/19 12:55:14;;;;;;;88.90;39.60;;;-2.00;1.00;;;;;;10383348;28;20280;-80
2022/12/19 13:00:36;;;;;;;93.63;41.33;;;-2.00;99.90;;;;;;10398898;28;20228;-79
2022/12/19 13:06:25;;;;;;;80.93;32.50;;;-2.00;1.00;;;;;;10397234;28;20196;-79
2022/12/19 13:17:35;;;;;;;91.17;38.30;;;-2.00;99.90;;;;;;10412332;28;20228;-79
2022/12/19 13:22:57;;;;;;;71.80;29.90;;;-2.20;99.90;;;;;;10409128;28;20224;-82
2022/12/19 13:28:21;;;;;;;66.07;28.03;;;-2.20;5.30;;;;;;10433447;28;20207;-81
2022/12/19 13:33:51;;;;;;;66.10;29.47;;;-2.00;28.20;;;;;;10412287;28;20229;-88
2022/12/19 13:39:32;;;;;;;88.10;33.97;;;-2.00;1.00;;;;;;10398226;28;20231;-87
2022/12/19 13:44:57;;;;;;;96.43;47.97;;;-2.10;99.90;;;;;;10396526;28;20488;-79
2022/12/19 13:50:28;;;;;;;79.73;33.17;;;-2.20;99.90;;;;;;10403035;28;20202;-81
2022/12/19 13:55:54;;;;;;;71.70;32.63;;;-2.20;99.90;;;;;;10407617;28;20209;-81
2022/12/19 14:01:31;;;;;;;70.37;30.83;;;-2.30;1.00;;;;;;10388156;28;20743;-79
2022/12/19 14:07:02;;;;;;;77.57;32.17;;;-2.30;72.20;;;;;;10396873;28;20509;-77
2022/12/19 14:18:30;;;;;;;89.33;35.87;;;-2.30;99.90;;;;;;10391866;28;20275;-79
2022/12/19 14:24:11;;;;;;;128.90;49.83;;;-2.30;1.00;;;;;;10389406;28;20214;-81
2022/12/19 14:29:48;;;;;;;111.17;42.40;;;-2.30;56.40;;;;;;10414476;28;20541;-79
2022/12/19 14:35:15;;;;;;;85.73;38.93;;;-2.20;37.00;;;;;;10403315;28;20266;-78
2022/12/19 14:40:40;;;;;;;98.53;40.53;;;-2.20;99.90;;;;;;10398733;28;20562;-79
2022/12/19 14:46:11;;;;;;;74.33;34.53;;;-2.20;1.00;;;;;;10408255;28;20201;-79
2022/12/19 14:51:35;;;;;;;69.80;33.57;;;-2.00;1.00;;;;;;10386868;28;20203;-80
2022/12/19 14:56:59;;;;;;;76.27;37.40;;;-2.10;1.00;;;;;;10385593;28;20209;-78
2022/12/19 15:02:29;;;;;;;87.00;42.90;;;-2.20;99.90;;;;;;10381786;28;20239;-80
2022/12/19 15:07:54;;;;;;;111.40;50.27;;;-2.10;74.00;;;;;;10407318;28;20206;-78
2022/12/19 15:13:18;;;;;;;96.93;39.53;;;-2.10;1.00;;;;;;10396837;28;20213;-79
2022/12/19 15:18:41;;;;;;;86.10;36.47;;;-2.00;99.90;;;;;;10415300;28;20556;-78
2022/12/19 15:24:02;;;;;;;76.33;34.67;;;-2.00;1.00;;;;;;10410188;28;20197;-79
2022/12/19 15:29:25;;;;;;;62.97;29.23;;;-2.10;1.00;;;;;;10383354;28;20236;-79
2022/12/19 15:34:45;;;;;;;69.90;35.57;;;-1.90;99.90;;;;;;10391611;28;20481;-80
2022/12/19 15:40:16;;;;;;;71.17;33.33;;;-1.90;99.90;;;;;;10394987;28;20447;-79
2022/12/19 15:45:37;;;;;;;79.47;37.07;;;-1.90;1.00;;;;;;10415052;28;20220;-78
2022/12/19 15:50:58;;;;;;;74.43;33.07;;;-1.90;1.00;;;;;;10399054;28;20376;-77
2022/12/19 15:56:28;;;;;;;70.50;35.23;;;-1.80;99.90;;;;;;10406220;28;20288;-81
2022/12/19 16:01:50;;;;;;;94.13;45.03;;;-1.70;99.90;;;;;;10359396;28;20217;-80
2022/12/19 16:07:21;;;;;;;69.70;32.73;;;-1.70;99.90;;;;;;10426600;28;20267;-79
2022/12/19 16:12:50;;;;;;;76.67;40.07;;;-1.70;1.00;;;;;;10421506;28;20380;-78
2022/12/19 16:18:12;;;;;;;68.77;32.70;;;-1.70;1.00;;;;;;10436003;28;20189;-80
2022/12/19 16:23:33;;;;;;;65.80;31.43;;;-1.80;1.00;;;;;;10434713;28;20228;-79
2022/12/19 16:28:55;;;;;;;61.60;29.27;;;-1.70;1.00;;;;;;10381124;28;20196;-79
2022/12/19 16:34:18;;;;;;;66.03;30.93;;;-1.70;1.00;;;;;;10379268;28;20228;-80
2022/12/19 16:39:40;;;;;;;79.23;35.50;;;-1.80;1.00;;;;;;10391030;28;20396;-79
2022/12/19 16:45:02;;;;;;;66.93;30.93;;;-1.70;1.00;;;;;;10377507;28;20205;-79
2022/12/19 16:50:26;;;;;;;77.60;31.53;;;-1.70;1.00;;;;;;10392898;28;20495;-78
2022/12/19 16:55:49;;;;;;;77.77;33.77;;;-1.70;1.00;;;;;;10394090;28;20592;-79
2022/12/19 17:01:10;;;;;;;76.33;31.70;;;-1.70;1.00;;;;;;10379497;28;20271;-79
2022/12/19 17:06:31;;;;;;;69.40;34.23;;;-1.70;1.00;;;;;;10393403;28;20430;-79
2022/12/19 17:11:56;;;;;;;65.43;31.63;;;-1.70;1.00;;;;;;10380049;28;20364;-79
2022/12/19 17:17:17;;;;;;;72.00;33.63;;;-1.60;1.00;;;;;;10394869;28;20264;-78
2022/12/19 17:22:38;;;;;;;70.60;31.43;;;-1.60;1.00;;;;;;10393145;28;20438;-80
2022/12/19 17:28:00;;;;;;;75.23;35.90;;;-1.60;1.00;;;;;;10433707;28;20291;-78
2022/12/19 17:33:24;;;;;;;85.17;40.67;;;-1.70;1.00;;;;;;10423005;28;20233;-79
2022/12/19 17:38:45;;;;;;;78.30;36.73;;;-1.50;1.00;;;;;;10386794;28;20397;-78
2022/12/19 17:44:06;;;;;;;90.50;42.17;;;-1.60;1.00;;;;;;10386744;28;20516;-79
2022/12/19 17:49:30;;;;;;;73.83;33.73;;;-1.50;1.00;;;;;;10386564;28;20395;-79
2022/12/19 17:54:51;;;;;;;94.87;41.10;;;-1.50;1.00;;;;;;10386581;28;20205;-79
2022/12/19 18:00:14;;;;;;;103.57;45.67;;;-1.50;1.00;;;;;;10400578;28;20272;-79
2022/12/19 18:05:35;;;;;;;113.43;47.83;;;-1.50;1.00;;;;;;10399226;28;20276;-79
2022/12/19 18:10:59;;;;;;;93.90;46.17;;;-1.50;1.00;;;;;;10400281;28;20488;-78
2022/12/19 18:16:25;;;;;;;85.73;41.13;;;-1.50;99.90;;;;;;10399543;28;20229;-78
2022/12/19 18:21:47;;;;;;;117.07;48.40;;;-1.40;99.90;;;;;;10398930;28;20229;-79
2022/12/19 18:27:08;;;;;;;83.60;40.60;;;-1.40;1.00;;;;;;10428695;28;20240;-78
2022/12/19 18:32:30;;;;;;;79.30;38.47;;;-1.40;1.00;;;;;;10428438;28;20419;-79
2022/12/19 18:37:51;;;;;;;111.57;47.13;;;-1.50;1.00;;;;;;10370489;28;20224;-79
2022/12/19 18:43:16;;;;;;;82.70;37.97;;;-1.60;1.00;;;;;;10370620;28;20459;-78
2022/12/19 18:48:37;;;;;;;74.30;37.00;;;-1.40;1.00;;;;;;10384604;28;20193;-79
2022/12/19 18:53:58;;;;;;;93.00;40.27;;;-1.50;1.00;;;;;;10398165;28;20198;-78
2022/12/19 18:59:20;;;;;;;116.63;49.77;;;-1.40;1.00;;;;;;10397913;28;20487;-78
2022/12/19 19:04:41;;;;;;;91.47;42.40;;;-1.40;9.60;;;;;;10398254;28;20221;-79
2022/12/19 19:10:18;;;;;;;116.97;50.27;;;-1.40;83.10;;;;;;10397538;28;20480;-78
2022/12/19 19:15:55;;;;;;;124.80;55.20;;;-1.30;99.90;;;;;;10397236;28;20228;-77
2022/12/19 19:21:18;;;;;;;96.13;43.73;;;-1.30;99.90;;;;;;10396348;28;20231;-78
2022/12/19 19:26:39;;;;;;;75.47;36.53;;;-1.20;99.90;;;;;;10422493;28;20202;-77
2022/12/19 19:32:01;;;;;;;77.77;37.80;;;-1.30;99.90;;;;;;10412837;28;20286;-78
2022/12/19 19:37:22;;;;;;;75.40;37.37;;;-1.20;99.90;;;;;;10368674;28;20194;-78
2022/12/19 19:42:44;;;;;;;71.37;37.23;;;-1.20;99.90;;;;;;10410100;28;20217;-79
2022/12/19 19:48:07;;;;;;;100.23;45.47;;;-1.00;99.90;;;;;;10381726;28;20220;-78
2022/12/19 19:53:28;;;;;;;93.77;45.47;;;-1.00;99.90;;;;;;10395143;28;20199;-79
2022/12/19 19:58:49;;;;;;;76.87;37.93;;;-0.90;99.90;;;;;;10396083;28;20193;-78
2022/12/19 20:04:10;;;;;;;77.57;38.57;;;-0.90;99.90;;;;;;10381198;28;20230;-79
2022/12/19 20:09:32;;;;;;;70.43;35.73;;;-0.90;99.90;;;;;;10381424;28;20488;-79
2022/12/19 20:14:53;;;;;;;75.90;35.53;;;-0.80;99.90;;;;;;10395062;28;20190;-79
2022/12/19 20:20:14;;;;;;;76.93;35.87;;;-0.70;99.90;;;;;;10396265;28;20345;-78
2022/12/19 20:25:38;;;;;;;74.77;33.67;;;-0.60;99.90;;;;;;10412583;28;20196;-78
2022/12/19 20:31:00;;;;;;;57.37;30.07;;;-0.60;99.90;;;;;;10435379;28;20583;-78
2022/12/19 20:36:22;;;;;;;58.33;29.60;;;-0.50;99.90;;;;;;10435750;28;20251;-78
2022/12/19 20:41:43;;;;;;;65.80;31.00;;;-0.50;99.90;;;;;;10421534;28;20232;-78
2022/12/19 20:47:05;;;;;;;59.37;31.30;;;-0.40;99.90;;;;;;10435254;28;20421;-78
2022/12/19 20:52:26;;;;;;;75.10;38.03;;;-0.40;99.90;;;;;;10398941;28;20217;-79
2022/12/19 20:57:47;;;;;;;76.03;36.77;;;-0.40;99.90;;;;;;10381010;28;20202;-78
2022/12/19 21:03:09;;;;;;;82.20;37.23;;;-0.30;99.90;;;;;;10405819;28;20231;-79
2022/12/19 21:08:47;;;;;;;72.40;34.60;;;-0.30;99.90;;;;;;10443047;28;20221;-79
2022/12/19 21:14:10;;;;;;;64.90;29.17;;;-0.20;99.90;;;;;;10428802;28;20392;-77
2022/12/19 21:19:31;;;;;;;63.33;31.00;;;-0.10;99.90;;;;;;10415350;28;20222;-78
2022/12/19 21:24:52;;;;;;;55.13;29.07;;;0.00;99.90;;;;;;10398689;28;20554;-79
2022/12/19 21:30:14;;;;;;;62.07;28.53;;;0.20;99.90;;;;;;10427647;28;20472;-80
2022/12/19 21:35:36;;;;;;;66.03;29.30;;;0.30;99.90;;;;;;10442079;28;20256;-79
2022/12/19 21:41:01;;;;;;;51.70;27.27;;;0.20;99.90;;;;;;10428250;28;20226;-78
2022/12/19 21:46:25;;;;;;;67.17;30.03;;;0.30;99.90;;;;;;10386486;28;20202;-78
2022/12/19 21:51:45;;;;;;;64.20;31.10;;;0.30;99.90;;;;;;10373079;28;20201;-78
2022/12/19 21:57:07;;;;;;;55.43;27.13;;;0.30;99.90;;;;;;10372753;28;20252;-78
2022/12/19 22:02:28;;;;;;;59.77;25.00;;;0.30;99.90;;;;;;10385764;28;20405;-79
2022/12/19 22:07:49;;;;;;;50.90;23.03;;;0.40;99.90;;;;;;10400152;28;20354;-78
2022/12/19 22:13:10;;;;;;;48.77;23.77;;;0.50;99.90;;;;;;10371291;28;20199;-78
2022/12/19 22:18:34;;;;;;;51.63;27.30;;;0.50;99.90;;;;;;10400022;28;20191;-79
2022/12/19 22:23:56;;;;;;;30.97;19.40;;;0.50;99.90;;;;;;10402300;28;20268;-79
2022/12/19 22:29:17;;;;;;;35.43;20.77;;;0.50;99.90;;;;;;10425960;28;20188;-78
2022/12/19 22:34:38;;;;;;;35.20;19.27;;;0.60;99.90;;;;;;10425905;28;20195;-78
2022/12/19 22:40:02;;;;;;;32.10;18.17;;;0.70;99.90;;;;;;10432120;28;20198;-78
2022/12/19 22:45:23;;;;;;;28.97;17.53;;;0.70;99.90;;;;;;10384940;28;20244;-79
2022/12/19 22:50:45;;;;;;;27.33;15.77;;;0.80;99.90;;;;;;10398341;28;20284;-78
2022/12/19 22:56:11;;;;;;;24.30;14.00;;;0.80;99.90;;;;;;10397759;28;20270;-78
2022/12/19 23:01:38;;;;;;;22.77;14.07;;;0.80;99.90;;;;;;10397633;28;20219;-78
2022/12/19 23:06:59;;;;;;;22.17;13.53;;;0.80;99.90;;;;;;10411641;28;20192;-78
2022/12/19 23:12:20;;;;;;;16.67;11.73;;;0.90;99.90;;;;;;10397325;28;20194;-78
2022/12/19 23:17:41;;;;;;;23.57;14.20;;;0.90;99.90;;;;;;10398293;28;20199;-78
2022/12/19 23:23:02;;;;;;;20.40;12.80;;;1.00;99.90;;;;;;10398103;28;20237;-78
2022/12/19 23:28:23;;;;;;;21.10;12.87;;;1.00;99.90;;;;;;10397382;28;20211;-78
2022/12/19 23:33:45;;;;;;;19.60;12.40;;;1.00;99.90;;;;;;10396605;28;20288;-80
2022/12/19 23:39:06;;;;;;;19.50;11.53;;;0.90;99.90;;;;;;10397541;28;20208;-78
2022/12/19 23:44:27;;;;;;;20.07;11.70;;;1.00;99.90;;;;;;10396314;28;20247;-79
2022/12/19 23:49:48;;;;;;;22.27;12.70;;;1.00;99.90;;;;;;10396159;28;20191;-79
2022/12/19 23:55:10;;;;;;;27.93;14.83;;;1.00;99.90;;;;;;10381739;28;20224;-78
